sensor_id;sensor_type;location;lat;lon;timestamp;temperature;humidity
13652;DHT22;6899;51.546;6.912;2023-05-07T00:00:33;13.60;99.90
13652;DHT22;6899;51.546;6.912;2023-05-07T00:03:00;13.60;99.90
13652;DHT22;6899;51.546;6.912;2023-05-07T00:05:27;13.60;99.90
13652;DHT22;6899;51.546;6.912;2023-05-07T00:07:55;13.50;99.90
13652;DHT22;6899;51.546;6.912;2023-05-07T00:10:22;13.50;99.90
13652;DHT22;6899;51.546;6.912;2023-05-07T00:12:48;13.50;99.90
13652;DHT22;6899;51.546;6.912;2023-05-07T00:15:15;13.50;99.90
13652;DHT22;6899;51.546;6.912;2023-05-07T00:17:42;13.50;99.90
13652;DHT22;6899;51.546;6.912;2023-05-07T00:20:09;13.40;99.90
13652;DHT22;6899;51.546;6.912;2023-05-07T00:22:36;13.50;99.90
13652;DHT22;6899;51.546;6.912;2023-05-07T00:25:05;13.50;99.90
13652;DHT22;6899;51.546;6.912;2023-05-07T00:27:32;13.50;99.90
13652;DHT22;6899;51.546;6.912;2023-05-07T00:29:59;13.50;99.90
13652;DHT22;6899;51.546;6.912;2023-05-07T00:32:26;13.50;99.90
13652;DHT22;6899;51.546;6.912;2023-05-07T00:34:52;13.50;99.90
13652;DHT22;6899;51.546;6.912;2023-05-07T00:37:19;13.40;99.90
13652;DHT22;6899;51.546;6.912;2023-05-07T00:39:46;13.40;99.90
13652;DHT22;6899;51.546;6.912;2023-05-07T00:42:14;13.40;99.90
13652;DHT22;6899;51.546;6.912;2023-05-07T00:44:41;13.30;99.90
13652;DHT22;6899;51.546;6.912;2023-05-07T00:47:08;13.30;99.90
13652;DHT22;6899;51.546;6.912;2023-05-07T00:49:38;13.40;99.90
13652;DHT22;6899;51.546;6.912;2023-05-07T00:52:06;13.40;99.90
13652;DHT22;6899;51.546;6.912;2023-05-07T00:54:34;13.40;99.90
13652;DHT22;6899;51.546;6.912;2023-05-07T00:57:02;13.40;99.90
13652;DHT22;6899;51.546;6.912;2023-05-07T00:59:31;13.40;99.90
13652;DHT22;6899;51.546;6.912;2023-05-07T01:01:58;13.30;99.90
13652;DHT22;6899;51.546;6.912;2023-05-07T01:04:26;13.30;99.90
13652;DHT22;6899;51.546;6.912;2023-05-07T01:06:53;13.30;99.90
13652;DHT22;6899;51.546;6.912;2023-05-07T01:09:22;13.30;99.90
13652;DHT22;6899;51.546;6.912;2023-05-07T01:11:50;13.30;99.90
13652;DHT22;6899;51.546;6.912;2023-05-07T01:14:18;13.30;99.90
13652;DHT22;6899;51.546;6.912;2023-05-07T01:16:47;13.30;99.90
13652;DHT22;6899;51.546;6.912;2023-05-07T01:19:18;13.40;99.90
13652;DHT22;6899;51.546;6.912;2023-05-07T01:21:46;13.40;99.90
13652;DHT22;6899;51.546;6.912;2023-05-07T01:24:15;13.40;99.90
13652;DHT22;6899;51.546;6.912;2023-05-07T01:26:43;13.40;99.90
13652;DHT22;6899;51.546;6.912;2023-05-07T01:29:10;13.40;99.90
13652;DHT22;6899;51.546;6.912;2023-05-07T01:31:37;13.40;99.90
13652;DHT22;6899;51.546;6.912;2023-05-07T01:34:06;13.40;99.90
13652;DHT22;6899;51.546;6.912;2023-05-07T01:36:34;13.40;99.90
13652;DHT22;6899;51.546;6.912;2023-05-07T01:39:02;13.40;99.90
13652;DHT22;6899;51.546;6.912;2023-05-07T01:41:31;13.40;99.90
13652;DHT22;6899;51.546;6.912;2023-05-07T01:43:58;13.40;99.90
13652;DHT22;6899;51.546;6.912;2023-05-07T01:46:26;13.40;99.90
13652;DHT22;6899;51.546;6.912;2023-05-07T01:48:53;13.30;99.90
13652;DHT22;6899;51.546;6.912;2023-05-07T01:51:20;13.40;99.90
13652;DHT22;6899;51.546;6.912;2023-05-07T01:53:47;13.40;99.90
13652;DHT22;6899;51.546;6.912;2023-05-07T01:56:16;13.40;99.90
13652;DHT22;6899;51.546;6.912;2023-05-07T01:58:44;13.50;99.90
13652;DHT22;6899;51.546;6.912;2023-05-07T02:01:12;13.40;99.90
13652;DHT22;6899;51.546;6.912;2023-05-07T02:03:39;13.40;99.90
13652;DHT22;6899;51.546;6.912;2023-05-07T02:06:06;13.40;99.90
13652;DHT22;6899;51.546;6.912;2023-05-07T02:08:33;13.50;99.90
13652;DHT22;6899;51.546;6.912;2023-05-07T02:10:59;13.40;99.90
13652;DHT22;6899;51.546;6.912;2023-05-07T02:13:31;13.50;99.90
13652;DHT22;6899;51.546;6.912;2023-05-07T02:15:59;13.40;99.90
13652;DHT22;6899;51.546;6.912;2023-05-07T02:18:26;13.40;99.90
13652;DHT22;6899;51.546;6.912;2023-05-07T02:20:53;13.40;99.90
13652;DHT22;6899;51.546;6.912;2023-05-07T02:23:19;13.40;99.90
13652;DHT22;6899;51.546;6.912;2023-05-07T02:25:46;13.30;99.90
13652;DHT22;6899;51.546;6.912;2023-05-07T02:28:13;13.30;99.90
13652;DHT22;6899;51.546;6.912;2023-05-07T02:30:40;13.30;99.90
13652;DHT22;6899;51.546;6.912;2023-05-07T02:33:08;13.30;99.90
13652;DHT22;6899;51.546;6.912;2023-05-07T02:35:37;13.30;99.90
13652;DHT22;6899;51.546;6.912;2023-05-07T02:38:04;13.30;99.90
13652;DHT22;6899;51.546;6.912;2023-05-07T02:40:31;13.20;99.90
13652;DHT22;6899;51.546;6.912;2023-05-07T02:42:59;13.30;99.90
13652;DHT22;6899;51.546;6.912;2023-05-07T02:45:25;13.30;99.90
13652;DHT22;6899;51.546;6.912;2023-05-07T02:47:52;13.30;99.90
13652;DHT22;6899;51.546;6.912;2023-05-07T02:50:20;13.20;99.90
13652;DHT22;6899;51.546;6.912;2023-05-07T02:52:47;13.30;99.90
13652;DHT22;6899;51.546;6.912;2023-05-07T02:55:14;13.20;99.90
13652;DHT22;6899;51.546;6.912;2023-05-07T02:57:41;13.20;99.90
13652;DHT22;6899;51.546;6.912;2023-05-07T03:00:12;13.20;99.90
13652;DHT22;6899;51.546;6.912;2023-05-07T03:02:39;13.20;99.90
13652;DHT22;6899;51.546;6.912;2023-05-07T03:05:07;13.10;99.90
13652;DHT22;6899;51.546;6.912;2023-05-07T03:07:35;13.10;99.90
13652;DHT22;6899;51.546;6.912;2023-05-07T03:10:03;13.10;99.90
13652;DHT22;6899;51.546;6.912;2023-05-07T03:12:30;13.00;99.90
13652;DHT22;6899;51.546;6.912;2023-05-07T03:14:57;13.00;99.90
13652;DHT22;6899;51.546;6.912;2023-05-07T03:17:23;13.00;99.90
13652;DHT22;6899;51.546;6.912;2023-05-07T03:19:50;13.00;99.90
13652;DHT22;6899;51.546;6.912;2023-05-07T03:22:17;12.90;99.90
13652;DHT22;6899;51.546;6.912;2023-05-07T03:24:45;12.90;99.90
13652;DHT22;6899;51.546;6.912;2023-05-07T03:27:11;13.00;99.90
13652;DHT22;6899;51.546;6.912;2023-05-07T03:29:38;13.00;99.90
13652;DHT22;6899;51.546;6.912;2023-05-07T03:32:05;13.00;99.90
13652;DHT22;6899;51.546;6.912;2023-05-07T03:34:32;12.90;99.90
13652;DHT22;6899;51.546;6.912;2023-05-07T03:36:59;12.90;99.90
13652;DHT22;6899;51.546;6.912;2023-05-07T03:39:26;12.90;99.90
13652;DHT22;6899;51.546;6.912;2023-05-07T03:41:54;12.90;99.90
13652;DHT22;6899;51.546;6.912;2023-05-07T03:44:21;13.00;99.90
13652;DHT22;6899;51.546;6.912;2023-05-07T03:46:48;12.90;99.90
13652;DHT22;6899;51.546;6.912;2023-05-07T03:49:14;12.90;99.90
13652;DHT22;6899;51.546;6.912;2023-05-07T03:51:41;12.90;99.90
13652;DHT22;6899;51.546;6.912;2023-05-07T03:54:08;12.90;99.90
13652;DHT22;6899;51.546;6.912;2023-05-07T03:56:35;13.00;99.90
13652;DHT22;6899;51.546;6.912;2023-05-07T03:59:03;13.00;99.90
13652;DHT22;6899;51.546;6.912;2023-05-07T04:01:30;12.90;99.90
13652;DHT22;6899;51.546;6.912;2023-05-07T04:03:56;12.90;99.90
13652;DHT22;6899;51.546;6.912;2023-05-07T04:06:23;12.90;99.90
13652;DHT22;6899;51.546;6.912;2023-05-07T04:08:50;12.90;99.90
13652;DHT22;6899;51.546;6.912;2023-05-07T04:11:17;13.00;99.90
13652;DHT22;6899;51.546;6.912;2023-05-07T04:13:44;13.00;99.90
13652;DHT22;6899;51.546;6.912;2023-05-07T04:16:12;12.90;99.90
13652;DHT22;6899;51.546;6.912;2023-05-07T04:18:38;12.90;99.90
13652;DHT22;6899;51.546;6.912;2023-05-07T04:21:05;13.00;99.90
13652;DHT22;6899;51.546;6.912;2023-05-07T04:23:32;13.00;99.90
13652;DHT22;6899;51.546;6.912;2023-05-07T04:25:59;13.00;99.90
13652;DHT22;6899;51.546;6.912;2023-05-07T04:28:26;13.00;99.90
13652;DHT22;6899;51.546;6.912;2023-05-07T04:30:53;13.10;99.90
13652;DHT22;6899;51.546;6.912;2023-05-07T04:33:21;13.10;99.90
13652;DHT22;6899;51.546;6.912;2023-05-07T04:35:47;13.10;99.90
13652;DHT22;6899;51.546;6.912;2023-05-07T04:38:14;13.10;99.90
13652;DHT22;6899;51.546;6.912;2023-05-07T04:40:41;13.20;99.90
13652;DHT22;6899;51.546;6.912;2023-05-07T04:43:08;13.20;99.90
13652;DHT22;6899;51.546;6.912;2023-05-07T04:45:35;13.30;99.90
13652;DHT22;6899;51.546;6.912;2023-05-07T04:48:03;13.40;99.90
13652;DHT22;6899;51.546;6.912;2023-05-07T04:50:32;13.50;99.90
13652;DHT22;6899;51.546;6.912;2023-05-07T04:52:58;13.60;99.90
13652;DHT22;6899;51.546;6.912;2023-05-07T04:55:25;13.60;99.90
13652;DHT22;6899;51.546;6.912;2023-05-07T04:57:53;13.60;99.90
13652;DHT22;6899;51.546;6.912;2023-05-07T05:00:19;13.60;99.90
13652;DHT22;6899;51.546;6.912;2023-05-07T05:02:46;13.50;99.90
13652;DHT22;6899;51.546;6.912;2023-05-07T05:05:13;13.50;99.90
13652;DHT22;6899;51.546;6.912;2023-05-07T05:07:41;13.40;99.90
13652;DHT22;6899;51.546;6.912;2023-05-07T05:10:08;13.40;99.90
13652;DHT22;6899;51.546;6.912;2023-05-07T05:12:34;13.40;99.90
13652;DHT22;6899;51.546;6.912;2023-05-07T05:15:01;13.40;99.90
13652;DHT22;6899;51.546;6.912;2023-05-07T05:17:28;13.40;99.90
13652;DHT22;6899;51.546;6.912;2023-05-07T05:19:55;13.50;99.90
13652;DHT22;6899;51.546;6.912;2023-05-07T05:22:21;13.50;99.90
13652;DHT22;6899;51.546;6.912;2023-05-07T05:24:49;13.60;99.90
13652;DHT22;6899;51.546;6.912;2023-05-07T05:27:16;13.70;99.90
13652;DHT22;6899;51.546;6.912;2023-05-07T05:29:43;13.80;99.90
13652;DHT22;6899;51.546;6.912;2023-05-07T05:32:09;14.00;99.90
13652;DHT22;6899;51.546;6.912;2023-05-07T05:34:36;14.30;99.90
13652;DHT22;6899;51.546;6.912;2023-05-07T05:37:03;14.40;99.90
13652;DHT22;6899;51.546;6.912;2023-05-07T05:39:30;14.60;99.90
13652;DHT22;6899;51.546;6.912;2023-05-07T05:41:58;14.80;99.90
13652;DHT22;6899;51.546;6.912;2023-05-07T05:44:25;15.00;99.90
13652;DHT22;6899;51.546;6.912;2023-05-07T05:46:54;15.30;99.90
13652;DHT22;6899;51.546;6.912;2023-05-07T05:49:23;15.60;99.90
13652;DHT22;6899;51.546;6.912;2023-05-07T05:51:49;15.90;99.90
13652;DHT22;6899;51.546;6.912;2023-05-07T05:54:16;16.50;99.90
13652;DHT22;6899;51.546;6.912;2023-05-07T05:56:43;17.30;99.90
13652;DHT22;6899;51.546;6.912;2023-05-07T05:59:11;17.70;99.90
13652;DHT22;6899;51.546;6.912;2023-05-07T06:01:38;18.30;99.90
13652;DHT22;6899;51.546;6.912;2023-05-07T06:04:05;18.80;99.90
13652;DHT22;6899;51.546;6.912;2023-05-07T06:06:35;19.50;99.90
13652;DHT22;6899;51.546;6.912;2023-05-07T06:09:01;19.70;99.90
13652;DHT22;6899;51.546;6.912;2023-05-07T06:11:28;20.20;99.90
13652;DHT22;6899;51.546;6.912;2023-05-07T06:13:55;20.30;99.90
13652;DHT22;6899;51.546;6.912;2023-05-07T06:16:24;20.10;99.90
13652;DHT22;6899;51.546;6.912;2023-05-07T06:18:51;19.90;99.90
13652;DHT22;6899;51.546;6.912;2023-05-07T06:21:18;20.60;99.90
13652;DHT22;6899;51.546;6.912;2023-05-07T06:23:44;20.80;99.90
13652;DHT22;6899;51.546;6.912;2023-05-07T06:26:11;21.00;99.90
13652;DHT22;6899;51.546;6.912;2023-05-07T06:28:38;20.60;99.90
13652;DHT22;6899;51.546;6.912;2023-05-07T06:31:11;20.30;99.90
13652;DHT22;6899;51.546;6.912;2023-05-07T06:33:40;19.70;99.90
13652;DHT22;6899;51.546;6.912;2023-05-07T06:36:07;19.30;99.90
13652;DHT22;6899;51.546;6.912;2023-05-07T06:38:34;19.10;99.90
13652;DHT22;6899;51.546;6.912;2023-05-07T06:41:00;19.10;99.90
13652;DHT22;6899;51.546;6.912;2023-05-07T06:43:27;18.80;99.90
13652;DHT22;6899;51.546;6.912;2023-05-07T06:45:54;18.70;99.90
13652;DHT22;6899;51.546;6.912;2023-05-07T06:48:21;18.70;99.90
13652;DHT22;6899;51.546;6.912;2023-05-07T06:50:49;18.80;99.90
13652;DHT22;6899;51.546;6.912;2023-05-07T06:53:16;18.90;99.90
13652;DHT22;6899;51.546;6.912;2023-05-07T06:55:43;19.20;99.90
13652;DHT22;6899;51.546;6.912;2023-05-07T06:58:10;19.50;99.90
13652;DHT22;6899;51.546;6.912;2023-05-07T07:00:36;20.00;99.90
13652;DHT22;6899;51.546;6.912;2023-05-07T07:03:03;20.20;99.90
13652;DHT22;6899;51.546;6.912;2023-05-07T07:05:30;20.40;99.90
13652;DHT22;6899;51.546;6.912;2023-05-07T07:07:58;20.50;99.90
13652;DHT22;6899;51.546;6.912;2023-05-07T07:10:25;20.20;99.90
13652;DHT22;6899;51.546;6.912;2023-05-07T07:12:51;20.40;99.90
13652;DHT22;6899;51.546;6.912;2023-05-07T07:15:19;20.00;99.90
13652;DHT22;6899;51.546;6.912;2023-05-07T07:17:47;19.80;99.90
13652;DHT22;6899;51.546;6.912;2023-05-07T07:20:14;19.60;99.90
13652;DHT22;6899;51.546;6.912;2023-05-07T07:22:41;19.40;99.90
13652;DHT22;6899;51.546;6.912;2023-05-07T07:25:10;19.40;99.90
13652;DHT22;6899;51.546;6.912;2023-05-07T07:27:37;19.60;99.90
13652;DHT22;6899;51.546;6.912;2023-05-07T07:30:06;20.20;99.90
13652;DHT22;6899;51.546;6.912;2023-05-07T07:32:34;20.70;99.90
13652;DHT22;6899;51.546;6.912;2023-05-07T07:35:01;21.00;99.90
13652;DHT22;6899;51.546;6.912;2023-05-07T07:37:28;21.20;99.90
13652;DHT22;6899;51.546;6.912;2023-05-07T07:39:55;21.20;99.90
13652;DHT22;6899;51.546;6.912;2023-05-07T07:42:23;21.20;99.90
13652;DHT22;6899;51.546;6.912;2023-05-07T07:44:50;21.60;99.90
13652;DHT22;6899;51.546;6.912;2023-05-07T07:47:17;22.20;99.90
13652;DHT22;6899;51.546;6.912;2023-05-07T07:49:43;22.40;99.90
13652;DHT22;6899;51.546;6.912;2023-05-07T07:52:10;22.70;99.90
13652;DHT22;6899;51.546;6.912;2023-05-07T07:54:37;22.70;99.90
13652;DHT22;6899;51.546;6.912;2023-05-07T07:57:04;22.60;99.90
13652;DHT22;6899;51.546;6.912;2023-05-07T07:59:32;22.60;99.90
13652;DHT22;6899;51.546;6.912;2023-05-07T08:01:58;22.70;99.90
13652;DHT22;6899;51.546;6.912;2023-05-07T08:04:25;22.70;99.90
13652;DHT22;6899;51.546;6.912;2023-05-07T08:06:52;22.40;99.90
13652;DHT22;6899;51.546;6.912;2023-05-07T08:09:19;22.30;99.90
13652;DHT22;6899;51.546;6.912;2023-05-07T08:11:46;22.00;99.90
13652;DHT22;6899;51.546;6.912;2023-05-07T08:14:13;21.90;99.90
13652;DHT22;6899;51.546;6.912;2023-05-07T08:16:42;22.20;99.90
13652;DHT22;6899;51.546;6.912;2023-05-07T08:19:09;22.00;99.90
13652;DHT22;6899;51.546;6.912;2023-05-07T08:21:39;22.00;99.90
13652;DHT22;6899;51.546;6.912;2023-05-07T08:24:06;22.10;99.90
13652;DHT22;6899;51.546;6.912;2023-05-07T08:26:33;22.40;99.90
13652;DHT22;6899;51.546;6.912;2023-05-07T08:29:01;22.40;99.90
13652;DHT22;6899;51.546;6.912;2023-05-07T08:31:28;22.40;99.90
13652;DHT22;6899;51.546;6.912;2023-05-07T08:33:56;22.30;99.90
13652;DHT22;6899;51.546;6.912;2023-05-07T08:36:23;22.40;99.90
13652;DHT22;6899;51.546;6.912;2023-05-07T08:38:51;22.10;99.90
13652;DHT22;6899;51.546;6.912;2023-05-07T08:41:18;21.70;99.90
13652;DHT22;6899;51.546;6.912;2023-05-07T08:43:47;21.60;99.90
13652;DHT22;6899;51.546;6.912;2023-05-07T08:46:17;21.50;99.90
13652;DHT22;6899;51.546;6.912;2023-05-07T08:48:44;21.50;99.90
13652;DHT22;6899;51.546;6.912;2023-05-07T08:51:15;21.50;99.90
13652;DHT22;6899;51.546;6.912;2023-05-07T08:53:42;21.60;99.90
13652;DHT22;6899;51.546;6.912;2023-05-07T08:56:10;21.60;99.90
13652;DHT22;6899;51.546;6.912;2023-05-07T08:58:36;21.70;99.90
13652;DHT22;6899;51.546;6.912;2023-05-07T09:01:07;22.00;99.90
13652;DHT22;6899;51.546;6.912;2023-05-07T09:03:34;22.20;99.90
13652;DHT22;6899;51.546;6.912;2023-05-07T09:06:01;22.40;99.90
13652;DHT22;6899;51.546;6.912;2023-05-07T09:08:29;22.60;99.90
13652;DHT22;6899;51.546;6.912;2023-05-07T09:10:56;22.70;99.90
13652;DHT22;6899;51.546;6.912;2023-05-07T09:13:22;23.00;99.90
13652;DHT22;6899;51.546;6.912;2023-05-07T09:15:50;23.70;99.90
13652;DHT22;6899;51.546;6.912;2023-05-07T09:18:16;24.70;99.90
13652;DHT22;6899;51.546;6.912;2023-05-07T09:20:43;25.90;99.90
13652;DHT22;6899;51.546;6.912;2023-05-07T09:23:10;26.60;98.60
13652;DHT22;6899;51.546;6.912;2023-05-07T09:25:39;27.10;97.50
13652;DHT22;6899;51.546;6.912;2023-05-07T09:28:05;27.50;96.60
13652;DHT22;6899;51.546;6.912;2023-05-07T09:30:33;27.00;91.30
13652;DHT22;6899;51.546;6.912;2023-05-07T09:33:02;26.90;92.90
13652;DHT22;6899;51.546;6.912;2023-05-07T09:35:29;26.90;93.50
13652;DHT22;6899;51.546;6.912;2023-05-07T09:37:58;26.50;91.20
13652;DHT22;6899;51.546;6.912;2023-05-07T09:40:26;25.60;95.70
13652;DHT22;6899;51.546;6.912;2023-05-07T09:42:54;25.40;95.80
13652;DHT22;6899;51.546;6.912;2023-05-07T09:45:22;25.80;95.60
13652;DHT22;6899;51.546;6.912;2023-05-07T09:47:49;25.90;97.50
13652;DHT22;6899;51.546;6.912;2023-05-07T09:50:22;26.30;95.10
13652;DHT22;6899;51.546;6.912;2023-05-07T09:52:52;26.70;93.00
13652;DHT22;6899;51.546;6.912;2023-05-07T09:55:19;26.60;92.20
13652;DHT22;6899;51.546;6.912;2023-05-07T09:57:48;26.80;93.50
13652;DHT22;6899;51.546;6.912;2023-05-07T10:00:18;26.90;91.30
13652;DHT22;6899;51.546;6.912;2023-05-07T10:02:47;26.80;93.90
13652;DHT22;6899;51.546;6.912;2023-05-07T10:05:15;27.00;91.70
13652;DHT22;6899;51.546;6.912;2023-05-07T10:07:43;27.20;89.20
13652;DHT22;6899;51.546;6.912;2023-05-07T10:10:11;26.70;89.00
13652;DHT22;6899;51.546;6.912;2023-05-07T10:12:38;26.30;92.40
13652;DHT22;6899;51.546;6.912;2023-05-07T10:15:07;26.50;92.10
13652;DHT22;6899;51.546;6.912;2023-05-07T10:17:36;26.60;84.10
13652;DHT22;6899;51.546;6.912;2023-05-07T10:20:04;26.40;88.30
13652;DHT22;6899;51.546;6.912;2023-05-07T10:22:34;26.60;87.20
13652;DHT22;6899;51.546;6.912;2023-05-07T10:25:06;26.70;81.50
13652;DHT22;6899;51.546;6.912;2023-05-07T10:27:36;26.10;84.60
13652;DHT22;6899;51.546;6.912;2023-05-07T10:30:12;26.50;80.90
13652;DHT22;6899;51.546;6.912;2023-05-07T10:32:45;26.00;85.40
13652;DHT22;6899;51.546;6.912;2023-05-07T10:35:17;25.70;84.00
13652;DHT22;6899;51.546;6.912;2023-05-07T10:37:45;25.90;82.30
13652;DHT22;6899;51.546;6.912;2023-05-07T10:40:13;25.80;80.50
13652;DHT22;6899;51.546;6.912;2023-05-07T10:42:53;26.20;85.70
13652;DHT22;6899;51.546;6.912;2023-05-07T10:45:21;26.60;84.80
13652;DHT22;6899;51.546;6.912;2023-05-07T10:48:09;26.60;81.70
13652;DHT22;6899;51.546;6.912;2023-05-07T10:50:36;27.10;75.00
13652;DHT22;6899;51.546;6.912;2023-05-07T10:53:22;27.10;72.70
13652;DHT22;6899;51.546;6.912;2023-05-07T10:56:24;26.70;75.80
13652;DHT22;6899;51.546;6.912;2023-05-07T10:58:53;26.70;78.50
13652;DHT22;6899;51.546;6.912;2023-05-07T11:01:50;27.20;76.80
13652;DHT22;6899;51.546;6.912;2023-05-07T11:04:19;27.20;76.90
13652;DHT22;6899;51.546;6.912;2023-05-07T11:10:00;27.00;76.70
13652;DHT22;6899;51.546;6.912;2023-05-07T11:12:47;26.90;80.20
13652;DHT22;6899;51.546;6.912;2023-05-07T11:15:14;27.00;81.80
13652;DHT22;6899;51.546;6.912;2023-05-07T11:17:59;27.40;79.20
13652;DHT22;6899;51.546;6.912;2023-05-07T11:20:49;28.00;75.90
13652;DHT22;6899;51.546;6.912;2023-05-07T11:26:45;28.10;68.90
13652;DHT22;6899;51.546;6.912;2023-05-07T11:29:13;28.10;65.50
13652;DHT22;6899;51.546;6.912;2023-05-07T11:31:40;27.50;70.50
13652;DHT22;6899;51.546;6.912;2023-05-07T11:34:07;27.50;71.60
13652;DHT22;6899;51.546;6.912;2023-05-07T11:36:36;27.40;72.50
13652;DHT22;6899;51.546;6.912;2023-05-07T11:39:23;27.70;69.20
13652;DHT22;6899;51.546;6.912;2023-05-07T11:41:50;28.10;69.40
13652;DHT22;6899;51.546;6.912;2023-05-07T11:44:16;27.90;65.60
13652;DHT22;6899;51.546;6.912;2023-05-07T11:46:44;28.30;66.80
13652;DHT22;6899;51.546;6.912;2023-05-07T11:49:11;28.40;63.50
13652;DHT22;6899;51.546;6.912;2023-05-07T11:51:39;28.60;64.00
13652;DHT22;6899;51.546;6.912;2023-05-07T11:54:08;28.80;61.30
13652;DHT22;6899;51.546;6.912;2023-05-07T11:56:37;28.20;63.20
13652;DHT22;6899;51.546;6.912;2023-05-07T11:59:04;28.50;60.00
13652;DHT22;6899;51.546;6.912;2023-05-07T12:01:31;28.40;61.40
13652;DHT22;6899;51.546;6.912;2023-05-07T12:03:58;28.60;62.30
13652;DHT22;6899;51.546;6.912;2023-05-07T12:06:24;28.90;64.20
13652;DHT22;6899;51.546;6.912;2023-05-07T12:08:53;29.10;58.10
13652;DHT22;6899;51.546;6.912;2023-05-07T12:11:25;29.00;57.10
13652;DHT22;6899;51.546;6.912;2023-05-07T12:13:54;29.00;60.80
13652;DHT22;6899;51.546;6.912;2023-05-07T12:16:21;29.30;61.50
13652;DHT22;6899;51.546;6.912;2023-05-07T12:18:48;28.40;58.80
13652;DHT22;6899;51.546;6.912;2023-05-07T12:21:15;28.70;61.30
13652;DHT22;6899;51.546;6.912;2023-05-07T12:23:43;28.00;59.20
13652;DHT22;6899;51.546;6.912;2023-05-07T12:26:11;28.00;60.70
13652;DHT22;6899;51.546;6.912;2023-05-07T12:28:38;27.90;61.70
13652;DHT22;6899;51.546;6.912;2023-05-07T12:31:06;28.00;61.70
13652;DHT22;6899;51.546;6.912;2023-05-07T12:33:34;27.70;60.60
13652;DHT22;6899;51.546;6.912;2023-05-07T12:36:04;27.80;66.20
13652;DHT22;6899;51.546;6.912;2023-05-07T12:38:36;28.00;63.10
13652;DHT22;6899;51.546;6.912;2023-05-07T12:41:03;27.90;62.00
13652;DHT22;6899;51.546;6.912;2023-05-07T12:43:31;27.50;62.70
13652;DHT22;6899;51.546;6.912;2023-05-07T12:46:01;27.40;62.00
13652;DHT22;6899;51.546;6.912;2023-05-07T12:48:28;27.40;63.50
13652;DHT22;6899;51.546;6.912;2023-05-07T12:50:56;27.10;63.20
13652;DHT22;6899;51.546;6.912;2023-05-07T12:53:24;27.10;63.20
13652;DHT22;6899;51.546;6.912;2023-05-07T12:55:53;26.70;65.40
13652;DHT22;6899;51.546;6.912;2023-05-07T12:58:22;26.50;65.80
13652;DHT22;6899;51.546;6.912;2023-05-07T13:00:51;26.30;65.50
13652;DHT22;6899;51.546;6.912;2023-05-07T13:03:23;25.80;66.90
13652;DHT22;6899;51.546;6.912;2023-05-07T13:05:50;25.30;65.90
13652;DHT22;6899;51.546;6.912;2023-05-07T13:08:29;24.90;67.00
13652;DHT22;6899;51.546;6.912;2023-05-07T13:10:57;24.60;70.60
13652;DHT22;6899;51.546;6.912;2023-05-07T13:13:23;24.20;73.50
13652;DHT22;6899;51.546;6.912;2023-05-07T13:15:52;23.90;75.50
13652;DHT22;6899;51.546;6.912;2023-05-07T13:18:18;23.90;81.10
13652;DHT22;6899;51.546;6.912;2023-05-07T13:20:45;23.70;83.70
13652;DHT22;6899;51.546;6.912;2023-05-07T13:23:12;23.50;85.50
13652;DHT22;6899;51.546;6.912;2023-05-07T13:25:39;23.10;89.30
13652;DHT22;6899;51.546;6.912;2023-05-07T13:28:06;23.10;90.90
13652;DHT22;6899;51.546;6.912;2023-05-07T13:30:32;23.10;92.10
13652;DHT22;6899;51.546;6.912;2023-05-07T13:33:01;23.30;92.40
13652;DHT22;6899;51.546;6.912;2023-05-07T13:35:28;23.00;92.30
13652;DHT22;6899;51.546;6.912;2023-05-07T13:37:55;22.90;93.90
13652;DHT22;6899;51.546;6.912;2023-05-07T13:40:22;22.80;93.60
13652;DHT22;6899;51.546;6.912;2023-05-07T13:42:49;22.80;94.80
13652;DHT22;6899;51.546;6.912;2023-05-07T13:45:16;22.60;94.90
13652;DHT22;6899;51.546;6.912;2023-05-07T13:47:43;22.50;96.00
13652;DHT22;6899;51.546;6.912;2023-05-07T13:50:12;22.40;96.00
13652;DHT22;6899;51.546;6.912;2023-05-07T13:52:41;22.50;97.10
13652;DHT22;6899;51.546;6.912;2023-05-07T13:55:11;22.40;97.80
13652;DHT22;6899;51.546;6.912;2023-05-07T13:57:38;22.40;99.00
13652;DHT22;6899;51.546;6.912;2023-05-07T14:00:05;22.20;98.80
13652;DHT22;6899;51.546;6.912;2023-05-07T14:02:32;21.80;99.30
13652;DHT22;6899;51.546;6.912;2023-05-07T14:04:59;21.60;99.90
13652;DHT22;6899;51.546;6.912;2023-05-07T14:07:27;21.50;99.90
13652;DHT22;6899;51.546;6.912;2023-05-07T14:09:54;21.40;99.90
13652;DHT22;6899;51.546;6.912;2023-05-07T14:12:22;21.40;99.90
13652;DHT22;6899;51.546;6.912;2023-05-07T14:14:48;21.40;99.90
13652;DHT22;6899;51.546;6.912;2023-05-07T14:17:16;21.30;99.90
13652;DHT22;6899;51.546;6.912;2023-05-07T14:19:43;21.20;99.90
13652;DHT22;6899;51.546;6.912;2023-05-07T14:22:10;21.00;99.90
13652;DHT22;6899;51.546;6.912;2023-05-07T14:24:38;20.60;99.90
13652;DHT22;6899;51.546;6.912;2023-05-07T14:27:05;20.30;99.90
13652;DHT22;6899;51.546;6.912;2023-05-07T14:29:32;20.20;99.90
13652;DHT22;6899;51.546;6.912;2023-05-07T14:32:00;19.60;99.90
13652;DHT22;6899;51.546;6.912;2023-05-07T14:34:27;18.90;99.90
13652;DHT22;6899;51.546;6.912;2023-05-07T14:36:54;18.50;99.90
13652;DHT22;6899;51.546;6.912;2023-05-07T14:39:21;18.10;99.90
13652;DHT22;6899;51.546;6.912;2023-05-07T14:41:49;17.80;99.90
13652;DHT22;6899;51.546;6.912;2023-05-07T14:44:16;17.70;99.90
13652;DHT22;6899;51.546;6.912;2023-05-07T14:46:43;17.50;99.90
13652;DHT22;6899;51.546;6.912;2023-05-07T14:49:09;17.50;99.90
13652;DHT22;6899;51.546;6.912;2023-05-07T14:51:42;17.70;99.90
13652;DHT22;6899;51.546;6.912;2023-05-07T14:54:09;17.70;99.90
13652;DHT22;6899;51.546;6.912;2023-05-07T14:56:36;17.70;99.90
13652;DHT22;6899;51.546;6.912;2023-05-07T14:59:04;17.70;99.90
13652;DHT22;6899;51.546;6.912;2023-05-07T15:01:31;17.60;99.90
13652;DHT22;6899;51.546;6.912;2023-05-07T15:03:58;17.70;99.90
13652;DHT22;6899;51.546;6.912;2023-05-07T15:06:24;17.70;99.90
13652;DHT22;6899;51.546;6.912;2023-05-07T15:08:52;17.90;99.90
13652;DHT22;6899;51.546;6.912;2023-05-07T15:11:19;17.90;99.90
13652;DHT22;6899;51.546;6.912;2023-05-07T15:13:45;18.20;99.90
13652;DHT22;6899;51.546;6.912;2023-05-07T15:16:14;18.40;99.90
13652;DHT22;6899;51.546;6.912;2023-05-07T15:18:41;18.50;99.90
13652;DHT22;6899;51.546;6.912;2023-05-07T15:21:07;18.60;99.90
13652;DHT22;6899;51.546;6.912;2023-05-07T15:23:34;18.80;99.90
13652;DHT22;6899;51.546;6.912;2023-05-07T15:26:01;19.20;99.90
13652;DHT22;6899;51.546;6.912;2023-05-07T15:28:28;19.50;99.90
13652;DHT22;6899;51.546;6.912;2023-05-07T15:30:55;19.90;99.90
13652;DHT22;6899;51.546;6.912;2023-05-07T15:33:23;20.00;99.90
13652;DHT22;6899;51.546;6.912;2023-05-07T15:35:50;20.20;99.90
13652;DHT22;6899;51.546;6.912;2023-05-07T15:38:17;20.50;99.90
13652;DHT22;6899;51.546;6.912;2023-05-07T15:40:43;20.60;99.90
13652;DHT22;6899;51.546;6.912;2023-05-07T15:43:11;20.80;99.90
13652;DHT22;6899;51.546;6.912;2023-05-07T15:45:39;21.00;99.90
13652;DHT22;6899;51.546;6.912;2023-05-07T15:48:06;21.30;99.90
13652;DHT22;6899;51.546;6.912;2023-05-07T15:50:35;21.30;99.90
13652;DHT22;6899;51.546;6.912;2023-05-07T15:53:02;21.40;99.90
13652;DHT22;6899;51.546;6.912;2023-05-07T15:55:29;21.70;99.90